Wellston, Michigan
Current Conditions -  °F | °C
As of 11:15 PM on Tuesday 27 Jan 2015 (Local Time) from KMBL Reporting Station
Clear Clear  
Wind Chill: 10°   Ceiling: Unl
Heat Index: 10°   Visibility: 10mi
Dew Point:   Wind: 0mph
Humidity: 85%   Direction: NA
Pressure: 30.25"   Gusts: NA
Location:  44.22°N, 85.96°W
Report Text: KMBL 280415Z AUTO 00000KT 10SM CLR M12/M14 A3025 RMK AO1
Loading
Personal Weather Stations






























Interactive Weather Map New forecast layout! Learn more

10-Day Weather Forecast

Advertisements
Track Severe Weather on mobile